Time;durP1;ratioP1;P1;durP2;ratioP2;P2;SDS_P1;SDS_P2;PMS_P1;PMS_P2;Temp;Humidity;BMP_temperature;BMP_pressure;BME280_temperature;BME280_humidity;BME280_pressure;Samples;Min_cycle;Max_cycle;Signal;HPM_P1;HPM_P2
2022/10/03 00:00:10;;;;;;;1.17;1.07;;;10.10;99.90;;;;;;5032624;28;20176;-86
2022/10/03 00:02:57;;;;;;;1.43;1.07;;;10.20;99.90;;;;;;5036165;28;20184;-85
2022/10/03 00:05:29;;;;;;;1.90;1.70;;;10.10;99.90;;;;;;5036843;28;20275;-85
2022/10/03 00:08:23;;;;;;;0.88;0.88;;;10.20;99.90;;;;;;5036884;28;20566;-86
2022/10/03 00:11:19;;;;;;;0.70;0.70;;;10.20;99.90;;;;;;5035310;28;20187;-86
2022/10/03 00:14:22;;;;;;;1.07;0.93;;;10.20;99.90;;;;;;5017834;28;20192;-86
2022/10/03 00:17:39;;;;;;;2.93;1.70;;;10.20;99.90;;;;;;5035243;28;20279;-86
2022/10/03 00:20:33;;;;;;;2.97;2.03;;;10.20;99.90;;;;;;5013695;28;20192;-86
2022/10/03 00:23:37;;;;;;;1.58;1.48;;;10.20;99.90;;;;;;5035529;28;20246;-85
2022/10/03 00:26:26;;;;;;;1.80;1.70;;;10.20;99.90;;;;;;5020127;28;20199;-86
2022/10/03 00:29:13;;;;;;;0.87;0.87;;;11.60;99.90;;;;;;5035074;28;20196;-85
2022/10/03 00:31:57;;;;;;;2.87;1.63;;;10.20;99.90;;;;;;5036422;28;20711;-85
2022/10/03 00:34:47;;;;;;;1.05;1.05;;;10.20;99.90;;;;;;5036360;28;20245;-86
2022/10/03 00:37:37;;;;;;;1.63;1.52;;;10.30;99.90;;;;;;5036193;28;20192;-85
2022/10/03 00:40:24;;;;;;;4.80;1.40;;;10.80;99.90;;;;;;5035772;28;20660;-86
2022/10/03 00:43:09;;;;;;;0.70;0.70;;;10.20;99.90;;;;;;5035813;28;20231;-89
2022/10/03 00:46:05;;;;;;;1.70;1.60;;;10.30;99.90;;;;;;5036249;28;20161;-86
2022/10/03 00:48:51;;;;;;;0.87;0.87;;;10.20;99.90;;;;;;5035945;28;20171;-86
2022/10/03 00:51:38;;;;;;;4.03;1.65;;;10.20;99.90;;;;;;5034737;28;20177;-87
2022/10/03 00:54:25;;;;;;;2.03;1.83;;;10.20;99.90;;;;;;5026411;28;20168;-87
2022/10/03 00:57:09;;;;;;;1.03;1.03;;;10.20;99.90;;;;;;5026920;28;20177;-89
2022/10/03 00:59:38;;;;;;;1.50;1.40;;;10.20;99.90;;;;;;5025620;28;20165;-87
2022/10/03 01:02:52;;;;;;;1.40;1.17;;;11.30;99.90;;;;;;5020987;28;20541;-86
2022/10/03 01:05:44;;;;;;;1.90;0.90;;;10.20;99.90;;;;;;5026067;28;20192;-86
2022/10/03 01:08:30;;;;;;;6.53;1.43;;;10.30;99.90;;;;;;5033854;28;20534;-86
2022/10/03 01:11:23;;;;;;;0.60;0.60;;;10.30;99.90;;;;;;5030977;28;20207;-87
2022/10/03 01:14:14;;;;;;;1.20;1.10;;;10.30;99.90;;;;;;5033830;28;20169;-86
2022/10/03 01:17:01;;;;;;;1.33;1.25;;;10.30;99.90;;;;;;5033562;28;20176;-87
2022/10/03 01:19:48;;;;;;;1.00;1.00;;;10.30;99.90;;;;;;5033055;28;20224;-86
2022/10/03 01:22:36;;;;;;;1.10;1.00;;;10.30;99.90;;;;;;5029948;28;20613;-86
2022/10/03 01:25:29;;;;;;;0.70;0.70;;;10.40;99.90;;;;;;5035018;28;20185;-86
2022/10/03 01:31:07;;;;;;;0.95;0.90;;;10.30;99.90;;;;;;5030322;28;20226;-85
2022/10/03 01:33:41;;;;;;;1.23;1.13;;;10.30;99.90;;;;;;5035769;28;20223;-85
2022/10/03 01:36:41;;;;;;;9.23;1.93;;;10.30;99.90;;;;;;5034371;28;20172;-85
2022/10/03 01:39:10;;;;;;;0.80;0.80;;;10.80;99.90;;;;;;5023931;28;20196;-86
2022/10/03 01:41:50;;;;;;;1.40;1.30;;;10.20;99.90;;;;;;5030134;28;20200;-86
2022/10/03 01:44:39;;;;;;;1.73;1.63;;;10.30;99.90;;;;;;5027849;28;20180;-86
2022/10/03 01:47:14;;;;;;;2.33;1.70;;;10.20;99.90;;;;;;5029331;28;20175;-85
2022/10/03 01:49:43;;;;;;;0.80;0.80;;;10.20;99.90;;;;;;5024669;28;20649;-86
2022/10/03 01:52:17;;;;;;;0.70;0.70;;;10.20;99.90;;;;;;5024830;28;20272;-86
2022/10/03 01:55:01;;;;;;;1.20;1.20;;;10.30;99.90;;;;;;5021788;28;20180;-86
2022/10/03 01:57:42;;;;;;;1.77;1.23;;;10.20;99.90;;;;;;5028894;28;20184;-85
2022/10/03 02:00:11;;;;;;;2.03;1.83;;;10.10;99.90;;;;;;5028928;28;20267;-86
2022/10/03 02:02:54;;;;;;;1.13;1.13;;;10.10;99.90;;;;;;5017238;28;20216;-86
2022/10/03 02:06:00;;;;;;;1.17;1.07;;;10.10;99.90;;;;;;5013007;28;20185;-86
2022/10/03 02:08:29;;;;;;;1.90;1.70;;;10.00;99.90;;;;;;5013429;28;20268;-85
2022/10/03 02:11:06;;;;;;;1.87;1.77;;;10.10;99.90;;;;;;5014153;28;20185;-85
2022/10/03 02:13:41;;;;;;;1.70;1.52;;;10.00;99.90;;;;;;5014924;28;20168;-85
2022/10/03 02:16:16;;;;;;;1.08;1.08;;;10.00;99.90;;;;;;5014847;28;20185;-84
2022/10/03 02:18:49;;;;;;;4.83;1.57;;;10.00;99.90;;;;;;5021226;28;20173;-85
2022/10/03 02:21:44;;;;;;;3.20;1.65;;;10.10;99.90;;;;;;5021474;28;20204;-85
2022/10/03 02:24:23;;;;;;;3.37;1.07;;;10.30;99.90;;;;;;5032480;28;20178;-86
2022/10/03 02:27:13;;;;;;;1.37;1.27;;;9.90;99.90;;;;;;5027883;28;20173;-85
2022/10/03 02:30:12;;;;;;;1.07;1.07;;;9.90;99.90;;;;;;5030995;28;20521;-86
2022/10/03 02:33:11;;;;;;;1.50;1.40;;;9.90;99.90;;;;;;5024859;28;20228;-86
2022/10/03 02:35:54;;;;;;;1.63;1.53;;;10.00;99.90;;;;;;4999380;28;20189;-85
2022/10/03 02:38:45;;;;;;;1.20;1.10;;;9.90;99.90;;;;;;5022463;28;20173;-86
2022/10/03 02:41:42;;;;;;;1.83;1.13;;;9.90;99.90;;;;;;5021118;28;20789;-85
2022/10/03 02:44:26;;;;;;;1.20;1.10;;;9.90;99.90;;;;;;5021398;28;20185;-85
2022/10/03 02:47:11;;;;;;;1.77;1.10;;;9.90;99.90;;;;;;5023796;28;20169;-85
2022/10/03 02:49:55;;;;;;;1.80;1.53;;;9.90;99.90;;;;;;5014128;28;20701;-84
2022/10/03 02:52:32;;;;;;;1.10;1.08;;;9.90;99.90;;;;;;5014300;28;20223;-85
2022/10/03 02:55:27;;;;;;;3.50;2.10;;;9.90;99.90;;;;;;5013298;28;20181;-87
2022/10/03 02:58:14;;;;;;;2.37;1.67;;;9.80;99.90;;;;;;5014360;28;20175;-84
2022/10/03 03:00:59;;;;;;;2.77;0.80;;;9.90;99.90;;;;;;5014024;28;20252;-86
2022/10/03 03:03:55;;;;;;;1.23;0.80;;;9.90;99.90;;;;;;5012490;28;20197;-85
2022/10/03 03:06:58;;;;;;;1.13;1.00;;;9.80;99.90;;;;;;5013701;28;20165;-86
2022/10/03 03:09:42;;;;;;;1.17;1.17;;;9.80;99.90;;;;;;5012486;28;20184;-85
2022/10/03 03:12:15;;;;;;;1.83;1.73;;;9.90;99.90;;;;;;5011778;28;20185;-85
2022/10/03 03:15:32;;;;;;;1.20;1.00;;;9.90;99.90;;;;;;5012011;28;20181;-85
2022/10/03 03:18:14;;;;;;;2.40;2.20;;;9.90;99.90;;;;;;4990568;28;20189;-84
2022/10/03 03:20:51;;;;;;;0.83;0.83;;;9.90;99.90;;;;;;5011968;28;20996;-86
2022/10/03 03:23:26;;;;;;;2.17;1.67;;;9.90;99.90;;;;;;5012919;28;20192;-85
2022/10/03 03:26:36;;;;;;;0.83;0.83;;;9.90;99.90;;;;;;5012607;28;20161;-85
2022/10/03 03:29:05;;;;;;;1.40;1.30;;;9.90;99.90;;;;;;5012734;28;20189;-88
2022/10/03 03:31:54;;;;;;;0.70;0.70;;;10.10;99.90;;;;;;5012341;28;20224;-86
2022/10/03 03:34:32;;;;;;;0.80;0.80;;;9.90;99.90;;;;;;5012287;28;20173;-87
2022/10/03 03:37:08;;;;;;;1.23;1.13;;;9.90;99.90;;;;;;5011133;28;20173;-86
2022/10/03 03:40:00;;;;;;;0.67;0.67;;;9.90;99.90;;;;;;5012901;28;20169;-86
2022/10/03 03:42:35;;;;;;;1.37;1.27;;;9.90;99.90;;;;;;5011519;28;20217;-85
2022/10/03 03:45:21;;;;;;;1.10;1.10;;;9.90;99.90;;;;;;5012504;28;20252;-86
2022/10/03 03:48:02;;;;;;;1.50;1.27;;;9.90;99.90;;;;;;5012208;28;20197;-85
2022/10/03 03:50:48;;;;;;;1.27;1.20;;;10.00;99.90;;;;;;5011314;28;20734;-85
2022/10/03 03:53:40;;;;;;;4.30;2.00;;;10.00;99.90;;;;;;5029585;28;20188;-85
2022/10/03 03:56:18;;;;;;;2.57;2.30;;;9.90;99.90;;;;;;5001037;28;20274;-85
2022/10/03 03:59:31;;;;;;;1.87;1.23;;;9.90;99.90;;;;;;5032329;28;20180;-85
2022/10/03 04:02:17;;;;;;;1.77;1.67;;;9.90;99.90;;;;;;4983777;28;20232;-85
2022/10/03 04:05:13;;;;;;;1.47;1.37;;;9.90;99.90;;;;;;4990784;28;20680;-85
2022/10/03 04:07:49;;;;;;;0.90;0.90;;;9.90;99.90;;;;;;5030280;28;20184;-85
2022/10/03 04:10:23;;;;;;;8.87;1.03;;;9.90;99.90;;;;;;5031262;28;20668;-84
2022/10/03 04:13:23;;;;;;;0.93;0.93;;;9.90;99.90;;;;;;5031355;28;20200;-86
2022/10/03 04:19:30;;;;;;;1.00;1.00;;;9.90;99.90;;;;;;5030525;28;20241;-85
2022/10/03 04:22:17;;;;;;;0.83;0.83;;;9.90;99.90;;;;;;5032912;28;20204;-85
2022/10/03 04:24:46;;;;;;;1.10;1.03;;;10.00;99.90;;;;;;5039702;28;20181;-86
2022/10/03 04:27:24;;;;;;;1.47;1.30;;;9.90;99.90;;;;;;5045613;28;20203;-88
2022/10/03 04:30:13;;;;;;;1.70;1.60;;;9.90;99.90;;;;;;5042354;28;20251;-84
2022/10/03 04:32:56;;;;;;;4.03;1.10;;;9.90;99.90;;;;;;5043807;28;20228;-86
2022/10/03 04:35:41;;;;;;;1.80;1.70;;;9.90;99.90;;;;;;5031916;28;20277;-86
2022/10/03 04:38:43;;;;;;;0.70;0.70;;;9.90;99.90;;;;;;5032478;28;20172;-86
2022/10/03 04:41:30;;;;;;;2.90;1.77;;;9.90;99.90;;;;;;5033483;28;20200;-86
2022/10/03 04:44:37;;;;;;;1.47;1.37;;;9.90;99.90;;;;;;5032289;28;20271;-86
2022/10/03 04:47:21;;;;;;;0.83;0.83;;;9.90;99.90;;;;;;5032828;28;20168;-85
2022/10/03 04:49:55;;;;;;;0.90;0.90;;;9.90;99.90;;;;;;5036409;28;20731;-86
2022/10/03 04:52:38;;;;;;;2.30;1.67;;;9.90;99.90;;;;;;5034899;28;20184;-85
2022/10/03 04:55:16;;;;;;;0.95;0.95;;;9.90;99.90;;;;;;5036426;28;20543;-87
2022/10/03 04:57:51;;;;;;;1.60;1.50;;;10.00;99.90;;;;;;5036522;28;20647;-85
2022/10/03 05:00:32;;;;;;;0.47;0.47;;;10.00;99.90;;;;;;5019134;28;20173;-85
2022/10/03 05:03:12;;;;;;;1.13;1.13;;;10.00;99.90;;;;;;5016798;28;20221;-87
2022/10/03 05:05:46;;;;;;;1.80;1.27;;;10.00;99.90;;;;;;5016493;28;20169;-86
2022/10/03 05:08:42;;;;;;;1.17;0.97;;;10.00;99.90;;;;;;5016370;28;20166;-89
2022/10/03 05:11:22;;;;;;;1.93;1.30;;;10.00;99.90;;;;;;5017005;28;20239;-86
2022/10/03 05:14:09;;;;;;;0.90;0.90;;;10.00;99.90;;;;;;5015187;28;20177;-85
2022/10/03 05:16:37;;;;;;;1.83;1.73;;;10.00;99.90;;;;;;5018629;28;20212;-86
2022/10/03 05:19:49;;;;;;;2.03;1.43;;;10.70;99.90;;;;;;5025070;28;20677;-85
2022/10/03 05:22:39;;;;;;;0.90;0.90;;;10.10;99.90;;;;;;4992799;28;20217;-87
2022/10/03 05:25:28;;;;;;;1.40;1.30;;;10.00;99.90;;;;;;5030240;28;20177;-86
2022/10/03 05:28:14;;;;;;;1.33;1.33;;;10.00;99.90;;;;;;5029565;28;20169;-86
2022/10/03 05:31:34;;;;;;;2.90;2.10;;;10.00;99.90;;;;;;5035146;28;20177;-86
2022/10/03 05:34:33;;;;;;;1.67;1.57;;;10.00;99.90;;;;;;4959147;29;20175;-85
2022/10/03 05:37:04;;;;;;;1.00;0.97;;;10.10;99.90;;;;;;5025307;28;20170;-86
2022/10/03 05:40:00;;;;;;;0.70;0.70;;;11.90;99.90;;;;;;5026695;28;20177;-85
2022/10/03 05:42:32;;;;;;;0.80;0.80;;;10.10;99.90;;;;;;5022051;28;20705;-86
2022/10/03 05:45:43;;;;;;;1.93;1.60;;;10.10;99.90;;;;;;5036002;28;20183;-86
2022/10/03 05:48:19;;;;;;;1.27;1.13;;;10.10;99.90;;;;;;5036287;28;20249;-86
2022/10/03 05:51:20;;;;;;;0.50;0.50;;;10.10;99.90;;;;;;5039201;28;20203;-85
2022/10/03 05:54:04;;;;;;;0.60;0.60;;;10.10;99.90;;;;;;5034043;28;20164;-85
2022/10/03 05:56:48;;;;;;;3.00;1.37;;;10.00;99.90;;;;;;5031621;28;20264;-87
2022/10/03 05:59:25;;;;;;;0.90;0.90;;;10.00;99.90;;;;;;5026535;28;20165;-86
2022/10/03 06:02:16;;;;;;;0.90;0.90;;;10.00;99.90;;;;;;5023082;28;20228;-87
2022/10/03 06:05:12;;;;;;;0.90;0.90;;;10.00;99.90;;;;;;5024026;28;20182;-87
2022/10/03 06:08:14;;;;;;;0.83;0.83;;;10.00;99.90;;;;;;5022675;28;20359;-86
2022/10/03 06:10:48;;;;;;;1.53;1.43;;;10.00;99.90;;;;;;5005108;28;20180;-86
2022/10/03 06:13:29;;;;;;;1.20;1.10;;;10.00;99.90;;;;;;5014901;28;20184;-86
2022/10/03 06:16:24;;;;;;;1.08;1.08;;;10.00;99.90;;;;;;5039345;28;20191;-86
2022/10/03 06:19:29;;;;;;;1.90;1.80;;;9.90;99.90;;;;;;5043848;28;20180;-86
2022/10/03 06:22:25;;;;;;;1.10;1.02;;;10.00;99.90;;;;;;5028279;28;20650;-88
2022/10/03 06:25:20;;;;;;;1.80;1.30;;;10.00;99.90;;;;;;5030247;28;20219;-86
2022/10/03 06:28:24;;;;;;;4.35;1.10;;;10.00;99.90;;;;;;5029748;28;20177;-87
2022/10/03 06:31:27;;;;;;;1.33;1.23;;;10.00;99.90;;;;;;5032277;28;20306;-87
2022/10/03 06:34:11;;;;;;;1.40;1.30;;;9.90;99.90;;;;;;5025761;28;20185;-87
2022/10/03 06:36:43;;;;;;;1.37;1.27;;;9.90;99.90;;;;;;5032882;28;20168;-86
2022/10/03 06:39:30;;;;;;;1.20;1.10;;;9.90;99.90;;;;;;5034456;28;20172;-86
2022/10/03 06:42:21;;;;;;;1.08;1.08;;;9.90;99.90;;;;;;5014522;28;20193;-88
2022/10/03 06:45:28;;;;;;;1.17;1.00;;;10.00;99.90;;;;;;4989579;28;20193;-86
2022/10/03 06:48:26;;;;;;;1.10;0.93;;;10.00;99.90;;;;;;5014293;28;20284;-86
2022/10/03 06:51:07;;;;;;;1.58;1.48;;;10.10;99.90;;;;;;5033949;28;20218;-87
2022/10/03 06:54:00;;;;;;;1.88;1.77;;;10.10;99.90;;;;;;5032535;28;20207;-85
2022/10/03 06:56:44;;;;;;;2.37;2.10;;;10.10;99.90;;;;;;5032523;28;20271;-85
2022/10/03 06:59:22;;;;;;;3.80;3.20;;;10.10;99.90;;;;;;5032382;28;20184;-86
2022/10/03 07:01:58;;;;;;;1.90;1.63;;;10.20;99.90;;;;;;5033277;28;20211;-86
2022/10/03 07:04:49;;;;;;;0.87;0.87;;;10.10;99.90;;;;;;5015498;28;20665;-86
2022/10/03 07:07:44;;;;;;;0.83;0.83;;;10.20;99.90;;;;;;5033016;28;20639;-86
2022/10/03 07:10:38;;;;;;;6.13;1.70;;;10.20;99.90;;;;;;5028649;28;20307;-86
2022/10/03 07:13:41;;;;;;;1.97;0.80;;;10.20;99.90;;;;;;5031246;28;20208;-90
2022/10/03 07:16:22;;;;;;;1.23;1.17;;;10.20;99.90;;;;;;5029649;28;20207;-89
2022/10/03 07:19:18;;;;;;;2.30;2.10;;;10.30;99.90;;;;;;5037329;28;20255;-90
2022/10/03 07:22:30;;;;;;;0.93;0.90;;;10.20;99.90;;;;;;5035984;28;20196;-88
2022/10/03 07:25:23;;;;;;;1.00;0.90;;;10.20;99.90;;;;;;5033630;28;20550;-88
2022/10/03 07:28:06;;;;;;;1.27;1.17;;;10.30;99.90;;;;;;5014348;28;20169;-88
2022/10/03 07:30:58;;;;;;;0.77;0.77;;;10.10;99.90;;;;;;5014751;28;20170;-89
2022/10/03 07:33:35;;;;;;;1.07;1.00;;;10.20;99.90;;;;;;5014856;28;20208;-88
2022/10/03 07:39:44;;;;;;;1.02;1.02;;;10.20;99.90;;;;;;5016116;28;20535;-88
2022/10/03 07:42:20;;;;;;;1.07;1.07;;;10.20;99.90;;;;;;5026082;28;20258;-87
2022/10/03 07:44:56;;;;;;;0.90;0.90;;;10.20;99.90;;;;;;5013954;28;20222;-88
2022/10/03 07:47:54;;;;;;;0.73;0.73;;;10.60;99.90;;;;;;5014078;28;20222;-90
2022/10/03 07:50:26;;;;;;;0.70;0.70;;;10.10;99.90;;;;;;4980471;28;20276;-90
2022/10/03 07:53:10;;;;;;;1.03;1.00;;;10.10;99.90;;;;;;5012366;28;20185;-88
2022/10/03 07:55:41;;;;;;;0.93;0.93;;;10.20;99.90;;;;;;5011708;28;20177;-89
2022/10/03 07:58:30;;;;;;;2.13;1.92;;;10.10;99.90;;;;;;5012256;28;20181;-87
2022/10/03 08:01:10;;;;;;;0.70;0.63;;;10.20;99.90;;;;;;5013304;28;20196;-88
2022/10/03 08:04:13;;;;;;;0.67;0.67;;;10.20;99.90;;;;;;5013291;28;20161;-88
2022/10/03 08:06:46;;;;;;;1.17;1.10;;;10.30;99.90;;;;;;5012232;28;20185;-88
2022/10/03 08:09:36;;;;;;;1.08;0.57;;;10.30;99.90;;;;;;5021673;28;20184;-88
2022/10/03 08:12:41;;;;;;;0.80;0.80;;;10.30;99.90;;;;;;5032279;28;20184;-91
2022/10/03 08:15:10;;;;;;;1.05;0.80;;;10.30;99.90;;;;;;5029557;28;20183;-86
2022/10/03 08:17:57;;;;;;;0.65;0.65;;;10.40;99.90;;;;;;5032625;28;20196;-88
2022/10/03 08:21:00;;;;;;;0.63;0.63;;;10.40;99.90;;;;;;5032345;28;20665;-87
2022/10/03 08:24:08;;;;;;;0.90;0.90;;;10.40;99.90;;;;;;5035297;28;20202;-87
2022/10/03 08:27:03;;;;;;;0.95;0.95;;;10.30;99.90;;;;;;5054719;28;20171;-87
2022/10/03 08:29:39;;;;;;;0.75;0.75;;;10.40;99.90;;;;;;5040621;28;20161;-86
2022/10/03 08:32:42;;;;;;;6.57;1.67;;;10.40;99.90;;;;;;5036231;28;20246;-88
2022/10/03 08:35:22;;;;;;;0.85;0.85;;;10.50;99.90;;;;;;5034683;28;20199;-88
2022/10/03 08:38:18;;;;;;;1.27;1.17;;;10.50;99.90;;;;;;5033893;28;20175;-88
2022/10/03 08:41:08;;;;;;;1.07;1.07;;;10.40;99.90;;;;;;5037051;28;20193;-89
2022/10/03 08:43:59;;;;;;;0.95;0.95;;;10.60;99.90;;;;;;5035417;28;20176;-91
2022/10/03 08:46:49;;;;;;;3.75;1.20;;;10.60;99.90;;;;;;5036936;28;20271;-91
2022/10/03 08:49:23;;;;;;;1.48;1.38;;;10.60;99.90;;;;;;5035793;28;20185;-88
2022/10/03 08:52:00;;;;;;;0.87;0.87;;;10.70;99.90;;;;;;5034430;28;20188;-90
2022/10/03 08:55:02;;;;;;;0.77;0.77;;;10.80;99.90;;;;;;5037483;28;20180;-88
2022/10/03 08:58:03;;;;;;;1.15;1.13;;;10.80;99.90;;;;;;5040846;28;20193;-87
2022/10/03 09:00:51;;;;;;;11.93;1.55;;;10.80;99.90;;;;;;5019128;28;20238;-88
2022/10/03 09:03:25;;;;;;;1.85;1.23;;;10.60;99.90;;;;;;5036902;28;20169;-91
2022/10/03 09:06:04;;;;;;;3.80;1.50;;;10.70;99.90;;;;;;5034925;28;20242;-91
2022/10/03 09:08:59;;;;;;;0.47;0.47;;;10.70;99.90;;;;;;5036546;28;20214;-90
2022/10/03 09:11:49;;;;;;;0.77;0.77;;;10.60;99.90;;;;;;5036071;28;20176;-89
2022/10/03 09:14:30;;;;;;;0.60;0.60;;;10.60;99.90;;;;;;5034560;28;20223;-91
2022/10/03 09:16:56;;;;;;;1.73;1.63;;;10.60;99.90;;;;;;5036356;28;20172;-90
2022/10/03 09:19:40;;;;;;;1.45;1.38;;;10.60;99.90;;;;;;5025023;28;20568;-89
2022/10/03 09:22:24;;;;;;;1.73;1.23;;;10.60;99.90;;;;;;5034503;28;20201;-90
2022/10/03 09:25:05;;;;;;;1.52;1.40;;;11.30;99.90;;;;;;5035880;28;20176;-89
2022/10/03 09:27:52;;;;;;;0.80;0.80;;;10.50;99.90;;;;;;5035067;28;20176;-89
2022/10/03 09:30:36;;;;;;;1.40;1.27;;;10.50;99.90;;;;;;5031271;28;20181;-89
2022/10/03 09:33:27;;;;;;;1.33;1.23;;;10.50;99.90;;;;;;5035120;28;20185;-88
2022/10/03 09:36:30;;;;;;;0.73;0.73;;;10.50;99.90;;;;;;5034226;28;20547;-90
2022/10/03 09:39:29;;;;;;;1.47;1.20;;;10.50;99.90;;;;;;5012900;28;20184;-89
2022/10/03 09:42:22;;;;;;;1.05;1.05;;;10.50;99.90;;;;;;5034819;28;20572;-89
2022/10/03 09:44:59;;;;;;;0.67;0.67;;;10.50;99.90;;;;;;5034184;28;20180;-88
2022/10/03 09:47:49;;;;;;;0.47;0.47;;;10.60;99.90;;;;;;5033491;28;20621;-88
2022/10/03 09:50:34;;;;;;;0.68;0.68;;;10.60;99.90;;;;;;5035332;28;20157;-89
2022/10/03 09:53:23;;;;;;;1.30;0.70;;;10.70;99.90;;;;;;5034946;28;20172;-89
2022/10/03 09:56:30;;;;;;;0.70;0.70;;;10.70;99.90;;;;;;5033004;28;20614;-90
2022/10/03 09:59:14;;;;;;;1.15;0.90;;;10.80;99.90;;;;;;5036115;28;20165;-88
2022/10/03 10:02:01;;;;;;;0.73;0.73;;;10.90;99.90;;;;;;5034308;28;20645;-89
2022/10/03 10:04:39;;;;;;;0.97;0.93;;;11.00;99.90;;;;;;5033944;28;20214;-89
2022/10/03 10:07:33;;;;;;;0.88;0.88;;;11.00;99.90;;;;;;5029633;28;20185;-91
2022/10/03 10:10:15;;;;;;;0.80;0.80;;;11.00;99.90;;;;;;5035393;28;20173;-89
2022/10/03 10:13:13;;;;;;;1.95;0.80;;;11.00;99.90;;;;;;5033461;28;20173;-90
2022/10/03 10:15:58;;;;;;;1.30;1.20;;;11.00;99.90;;;;;;5032599;28;20173;-89
2022/10/03 10:19:00;;;;;;;1.30;1.07;;;11.00;99.90;;;;;;5035284;28;20181;-87
2022/10/03 10:22:02;;;;;;;1.20;1.10;;;11.00;99.90;;;;;;5035269;28;20206;-91
2022/10/03 10:25:24;;;;;;;1.08;1.05;;;11.00;99.90;;;;;;5035086;28;20172;-90
2022/10/03 10:28:13;;;;;;;1.10;1.00;;;11.00;99.90;;;;;;5034504;28;20161;-89
2022/10/03 10:31:02;;;;;;;1.60;1.50;;;11.00;99.90;;;;;;5030735;28;20199;-89
2022/10/03 10:33:39;;;;;;;1.35;1.25;;;11.10;99.90;;;;;;5028545;28;20199;-90
2022/10/03 10:36:44;;;;;;;1.30;1.05;;;11.20;99.90;;;;;;5034306;28;20714;-89
2022/10/03 10:39:47;;;;;;;1.08;1.00;;;11.20;99.90;;;;;;5033210;28;20196;-89
2022/10/03 10:42:24;;;;;;;1.08;0.98;;;11.20;99.90;;;;;;5013395;28;20212;-89
2022/10/03 10:45:16;;;;;;;0.70;0.70;;;11.20;99.90;;;;;;5026740;28;20179;-87
2022/10/03 10:48:30;;;;;;;2.15;0.98;;;11.10;99.90;;;;;;5032402;28;20180;-89
2022/10/03 10:51:30;;;;;;;0.82;0.82;;;11.10;99.90;;;;;;4995313;28;20231;-90
2022/10/03 10:54:33;;;;;;;1.17;1.00;;;11.10;99.90;;;;;;5034832;28;20223;-89
2022/10/03 10:57:28;;;;;;;1.40;1.30;;;11.00;99.90;;;;;;5025805;28;20179;-87
2022/10/03 11:00:16;;;;;;;0.90;0.82;;;11.00;99.90;;;;;;5030081;28;20264;-86
2022/10/03 11:03:16;;;;;;;1.02;0.93;;;11.00;99.90;;;;;;5031574;28;20223;-88
2022/10/03 11:06:06;;;;;;;1.17;1.13;;;11.00;99.90;;;;;;5013089;28;20196;-89
2022/10/03 11:09:02;;;;;;;1.42;1.27;;;11.00;99.90;;;;;;5012983;28;20181;-89
2022/10/03 11:12:06;;;;;;;1.20;1.10;;;11.00;99.90;;;;;;5013407;28;20619;-89
2022/10/03 11:15:05;;;;;;;0.95;0.90;;;11.10;99.90;;;;;;5020986;28;20177;-88
2022/10/03 11:18:01;;;;;;;2.05;1.45;;;11.10;99.90;;;;;;5037013;28;20201;-90
2022/10/03 11:20:54;;;;;;;0.93;0.85;;;11.10;99.90;;;;;;5035737;28;20502;-90
2022/10/03 11:23:41;;;;;;;0.77;0.73;;;11.00;99.90;;;;;;5018003;28;20303;-89
2022/10/03 11:26:38;;;;;;;1.40;1.30;;;11.10;99.90;;;;;;5025993;28;20187;-89
2022/10/03 11:29:40;;;;;;;0.90;0.85;;;11.00;99.90;;;;;;5046129;28;20184;-89
2022/10/03 11:32:27;;;;;;;1.52;1.15;;;11.00;99.90;;;;;;5046385;28;20235;-87
2022/10/03 11:35:35;;;;;;;0.90;0.90;;;11.00;99.90;;;;;;5044908;28;20187;-87
2022/10/03 11:38:38;;;;;;;3.10;1.92;;;11.00;99.90;;;;;;5034725;28;20636;-88
2022/10/03 11:41:07;;;;;;;0.88;0.88;;;11.00;99.90;;;;;;5019562;28;20207;-88
2022/10/03 11:43:45;;;;;;;0.80;0.80;;;11.90;99.90;;;;;;5030572;28;20199;-89
2022/10/03 11:46:46;;;;;;;0.50;0.50;;;11.00;99.90;;;;;;5012672;28;20491;-88
2022/10/03 11:49:18;;;;;;;0.55;0.55;;;11.00;99.90;;;;;;5014614;28;20180;-88
2022/10/03 11:51:52;;;;;;;1.15;1.15;;;10.90;99.90;;;;;;5032963;28;20186;-89
2022/10/03 11:54:33;;;;;;;1.30;1.23;;;10.90;99.90;;;;;;5034289;28;20223;-89
2022/10/03 11:57:08;;;;;;;0.63;0.63;;;10.90;99.90;;;;;;5024416;28;20165;-89
2022/10/03 12:00:00;;;;;;;1.23;1.13;;;11.00;99.90;;;;;;5022937;28;20247;-87
2022/10/03 12:02:40;;;;;;;0.70;0.70;;;11.00;99.90;;;;;;5024500;28;20200;-87
2022/10/03 12:05:47;;;;;;;1.75;0.90;;;11.00;99.90;;;;;;5023016;28;20268;-90
2022/10/03 12:11:37;;;;;;;1.17;1.08;;;11.10;99.90;;;;;;5015048;28;20547;-89
2022/10/03 12:14:09;;;;;;;1.33;1.23;;;11.10;99.90;;;;;;5015208;28;20165;-86
2022/10/03 12:16:44;;;;;;;1.35;1.25;;;11.10;99.90;;;;;;5021664;28;20208;-89
2022/10/03 12:19:41;;;;;;;0.85;0.85;;;11.10;99.90;;;;;;5029584;28;20693;-90
2022/10/03 12:22:17;;;;;;;1.00;1.00;;;11.10;99.90;;;;;;5032769;28;20208;-88
2022/10/03 12:24:45;;;;;;;1.25;1.15;;;11.10;99.90;;;;;;5030392;28;20180;-88
2022/10/03 12:27:29;;;;;;;1.30;1.20;;;11.10;99.90;;;;;;5037485;28;20192;-88
2022/10/03 12:29:59;;;;;;;2.10;1.58;;;11.10;99.90;;;;;;5032789;28;20633;-88
2022/10/03 12:32:31;;;;;;;1.45;1.35;;;11.20;99.90;;;;;;5032382;28;20666;-87
2022/10/03 12:35:16;;;;;;;1.27;1.20;;;11.10;99.90;;;;;;5033831;28;20177;-87
2022/10/03 12:37:47;;;;;;;1.92;1.52;;;11.10;99.90;;;;;;5034781;28;20181;-91
2022/10/03 12:40:29;;;;;;;1.27;1.10;;;11.10;99.90;;;;;;5035000;28;20185;-86
2022/10/03 12:43:27;;;;;;;0.63;0.63;;;11.10;99.90;;;;;;5032048;28;20661;-88
2022/10/03 12:46:25;;;;;;;1.33;1.20;;;11.10;99.90;;;;;;5015391;28;20192;-88
2022/10/03 12:49:06;;;;;;;1.17;1.17;;;11.20;99.90;;;;;;5027666;28;20173;-85
2022/10/03 12:52:03;;;;;;;1.97;1.30;;;11.20;99.90;;;;;;5025566;28;20176;-87
2022/10/03 12:54:38;;;;;;;1.35;1.02;;;11.20;99.90;;;;;;5003142;28;20324;-87
2022/10/03 12:57:33;;;;;;;1.40;1.30;;;11.30;99.90;;;;;;5030586;28;20188;-89
2022/10/03 13:00:29;;;;;;;2.55;1.58;;;11.20;99.90;;;;;;5025426;28;20173;-88
2022/10/03 13:03:24;;;;;;;0.70;0.70;;;11.30;99.90;;;;;;5019676;28;20197;-90
2022/10/03 13:06:00;;;;;;;0.73;0.73;;;11.20;99.90;;;;;;5026363;28;20169;-86
2022/10/03 13:08:46;;;;;;;2.92;1.48;;;11.20;99.90;;;;;;5028246;28;20172;-87
2022/10/03 13:11:17;;;;;;;1.80;0.95;;;11.70;99.90;;;;;;5019615;28;20181;-88
2022/10/03 13:14:14;;;;;;;1.67;1.50;;;12.50;99.90;;;;;;5030023;28;20188;-88
2022/10/03 13:17:06;;;;;;;1.05;0.98;;;12.80;99.90;;;;;;5037895;28;20640;-86
2022/10/03 13:20:05;;;;;;;0.80;0.80;;;12.60;99.90;;;;;;5044487;28;20165;-87
2022/10/03 13:22:51;;;;;;;0.80;0.80;;;12.30;99.90;;;;;;5035979;28;20220;-89
2022/10/03 13:25:23;;;;;;;1.40;1.30;;;12.10;99.90;;;;;;5036666;28;20157;-89
2022/10/03 13:27:58;;;;;;;0.70;0.70;;;12.10;99.90;;;;;;5036175;28;20165;-87
2022/10/03 13:30:24;;;;;;;2.72;0.90;;;12.30;99.90;;;;;;5034983;28;20180;-90
2022/10/03 13:33:09;;;;;;;0.80;0.80;;;11.90;99.90;;;;;;5035160;28;20513;-89
2022/10/03 13:35:58;;;;;;;1.95;1.02;;;11.80;99.90;;;;;;5027164;28;20169;-87
2022/10/03 13:38:45;;;;;;;0.60;0.60;;;12.10;99.90;;;;;;5036403;28;20165;-88
2022/10/03 13:41:29;;;;;;;1.88;0.85;;;12.70;99.90;;;;;;5036188;28;20564;-89
2022/10/03 13:44:22;;;;;;;1.60;1.20;;;13.40;99.90;;;;;;5038774;28;20278;-88
2022/10/03 13:46:53;;;;;;;1.02;0.88;;;13.90;99.90;;;;;;5034486;28;20614;-89
2022/10/03 13:49:33;;;;;;;0.63;0.60;;;14.10;99.90;;;;;;5035680;28;20180;-90
2022/10/03 13:52:21;;;;;;;0.30;0.30;;;14.00;99.90;;;;;;5034847;28;20188;-87
2022/10/03 13:55:25;;;;;;;0.50;0.50;;;13.70;99.90;;;;;;5034682;28;20625;-87
2022/10/03 13:58:22;;;;;;;1.05;0.93;;;13.50;99.90;;;;;;5036092;28;20168;-88
2022/10/03 14:01:04;;;;;;;0.68;0.68;;;13.20;99.90;;;;;;5036055;28;20279;-89
2022/10/03 14:03:48;;;;;;;0.50;0.50;;;12.90;99.90;;;;;;5035930;28;20271;-90
2022/10/03 14:06:34;;;;;;;0.50;0.50;;;12.80;99.90;;;;;;5035740;28;20157;-88
2022/10/03 14:09:14;;;;;;;0.82;0.73;;;12.50;99.90;;;;;;5036449;28;20290;-86
2022/10/03 14:12:00;;;;;;;1.30;0.75;;;12.30;99.90;;;;;;5034859;28;20310;-88
2022/10/03 14:14:33;;;;;;;1.83;0.82;;;12.20;99.90;;;;;;5035839;28;20637;-88
2022/10/03 14:17:30;;;;;;;0.70;0.70;;;12.10;99.90;;;;;;5035753;28;20259;-89
2022/10/03 14:20:18;;;;;;;1.40;1.02;;;12.10;99.90;;;;;;5034918;28;20169;-89
2022/10/03 14:22:59;;;;;;;0.85;0.85;;;12.00;99.90;;;;;;5034445;28;20223;-89
2022/10/03 14:25:27;;;;;;;0.75;0.70;;;12.00;99.90;;;;;;5035723;28;20230;-87
2022/10/03 14:28:15;;;;;;;0.50;0.47;;;12.00;99.90;;;;;;5035116;28;20238;-88
2022/10/03 14:31:05;;;;;;;0.82;0.82;;;11.90;99.90;;;;;;5034310;28;20181;-88
2022/10/03 14:33:40;;;;;;;0.95;0.80;;;11.80;99.90;;;;;;5033949;28;20264;-89
2022/10/03 14:36:55;;;;;;;0.70;0.70;;;11.80;99.90;;;;;;5035521;28;20218;-88
2022/10/03 14:39:39;;;;;;;1.42;0.90;;;11.70;99.90;;;;;;4996943;28;20181;-88
2022/10/03 14:42:26;;;;;;;1.25;1.02;;;11.70;99.90;;;;;;4996601;28;20224;-88
2022/10/03 14:45:00;;;;;;;1.33;1.23;;;11.70;99.90;;;;;;5025396;28;20665;-88